Time,TemperatureF,DewpointF,PressureIn,WindDirection,WindDirectionDegrees,WindSpeedMPH,WindSpeedGustMPH,Humidity,HourlyPrecipIn,Conditions,Clouds,dailyrainin,SoftwareType,DateUTC
2013-08-29 14:02:00,97.9,77.0,30.00,East,90,3.4,4.3,52,0.00,,,0.00,Graphweather,2013-08-29 18:02:00,
2013-08-29 14:17:00,98.4,77.0,29.97,East,90,2.0,0.0,52,0.00,,,0.00,Graphweather,2013-08-29 18:17:00,
2013-08-29 14:18:00,98.6,78.8,30.00,East,90,2.7,2.9,52,0.00,,,0.00,Graphweather,2013-08-29 18:18:00,
2013-08-29 14:20:00,98.2,77.0,30.00,ESE,112,2.0,2.7,52,0.00,,,0.00,Graphweather,2013-08-29 18:20:00,
2013-08-29 14:21:00,98.2,77.0,30.00,East,90,2.2,2.2,52,0.00,,,0.00,Graphweather,2013-08-29 18:21:00,
2013-08-29 14:26:00,98.4,77.0,30.00,SSE,157,2.2,3.4,52,0.00,,,0.00,Graphweather,2013-08-29 18:26:00,
2013-08-29 14:32:00,99.1,78.8,30.00,East,90,1.3,3.4,51,0.00,,,0.00,Graphweather,2013-08-29 18:32:00,
2013-08-29 14:37:00,99.0,78.8,30.00,ESE,112,1.1,1.1,52,0.00,,,0.00,Graphweather,2013-08-29 18:37:00,
2013-08-29 14:42:00,98.4,77.0,30.00,South,180,2.5,2.9,52,0.00,,,0.00,Graphweather,2013-08-29 18:42:00,
2013-08-29 14:56:00,96.1,77.0,29.97,ESE,112,2.0,3.4,55,0.00,,,0.00,Graphweather,2013-08-29 18:56:00,
2013-08-29 15:01:00,95.9,78.8,29.97,ESE,112,1.3,0.0,57,0.00,,,0.00,Graphweather,2013-08-29 19:01:00,
2013-08-29 15:02:00,95.9,78.8,29.97,ESE,112,1.3,0.0,57,0.00,,,0.00,Graphweather,2013-08-29 19:02:00,
2013-08-29 15:57:00,96.3,78.8,29.97,East,90,2.2,2.2,56,0.00,,,0.00,Graphweather,2013-08-29 19:57:00,
2013-08-29 16:02:00,95.4,78.8,29.97,East,90,2.2,2.2,57,0.00,,,0.00,Graphweather,2013-08-29 20:02:00,
2013-08-29 16:08:00,95.4,78.8,29.97,East,90,2.9,5.6,57,0.00,,,0.00,Graphweather,2013-08-29 20:08:00,
2013-08-29 16:13:00,94.6,78.8,29.97,ENE,67,2.2,5.8,59,0.00,,,0.00,Graphweather,2013-08-29 20:13:00,
2013-08-29 16:18:00,93.9,77.0,29.97,ESE,112,2.7,0.0,59,0.00,,,0.00,Graphweather,2013-08-29 20:18:00,
2013-08-29 16:23:00,92.1,77.0,29.97,East,90,0.9,2.7,62,0.00,,,0.00,Graphweather,2013-08-29 20:23:00,
2013-08-29 16:29:00,90.9,77.0,29.97,ENE,67,1.1,1.1,64,0.00,,,0.00,Graphweather,2013-08-29 20:29:00,
2013-08-29 16:34:00,89.4,77.0,29.97,East,90,1.1,1.3,66,0.00,,,0.00,Graphweather,2013-08-29 20:34:00,
2013-08-29 16:39:00,88.9,77.0,29.97,East,90,1.1,2.2,68,0.00,,,0.00,Graphweather,2013-08-29 20:39:00,
2013-08-29 16:44:00,88.3,77.0,29.97,SE,135,1.6,1.6,70,0.00,,,0.00,Graphweather,2013-08-29 20:44:00,
2013-08-29 16:49:00,87.8,78.8,29.97,ENE,67,1.1,2.7,72,0.00,,,0.00,Graphweather,2013-08-29 20:49:00,
2013-08-29 16:55:00,87.4,78.8,29.97,ESE,112,0.9,2.2,74,0.00,,,0.00,Graphweather,2013-08-29 20:55:00,
2013-08-29 17:00:00,87.1,78.8,29.97,ESE,112,1.3,2.0,74,0.00,,,0.00,Graphweather,2013-08-29 21:00:00,
2013-08-29 17:05:00,86.5,78.8,30.00,ESE,112,1.1,1.3,76,0.00,,,0.00,Graphweather,2013-08-29 21:05:00,
2013-08-29 17:11:00,86.0,78.8,30.00,East,90,2.2,2.2,77,0.00,,,0.00,Graphweather,2013-08-29 21:11:00,
2013-08-29 17:16:00,85.6,77.0,30.00,NE,45,2.2,2.2,77,0.00,,,0.00,Graphweather,2013-08-29 21:16:00,
2013-08-29 17:21:00,85.3,77.0,30.00,ENE,67,1.1,3.1,78,0.00,,,0.00,Graphweather,2013-08-29 21:21:00,
2013-08-29 17:26:00,85.3,78.8,30.00,East,90,1.6,2.7,79,0.00,,,0.00,Graphweather,2013-08-29 21:26:00,
2013-08-29 17:32:00,85.1,78.8,30.00,East,90,1.6,1.6,80,0.00,,,0.00,Graphweather,2013-08-29 21:32:00,
2013-08-29 17:37:00,84.4,78.8,30.00,NE,45,2.0,2.7,82,0.00,,,0.00,Graphweather,2013-08-29 21:37:00,
2013-08-29 17:42:00,84.0,78.8,30.00,ENE,67,1.3,2.0,83,0.00,,,0.00,Graphweather,2013-08-29 21:42:00,
2013-08-29 17:47:00,83.8,78.8,30.00,ESE,112,2.2,2.5,83,0.00,,,0.00,Graphweather,2013-08-29 21:47:00,
2013-08-29 17:53:00,83.1,77.0,30.00,ENE,67,2.0,3.4,83,0.00,,,0.00,Graphweather,2013-08-29 21:53:00,
2013-08-29 17:58:00,82.9,77.0,30.00,ESE,112,1.3,1.6,83,0.00,,,0.00,Graphweather,2013-08-29 21:58:00,
2013-08-29 18:16:00,82.2,78.8,30.00,NE,45,0.0,2.0,85,0.00,,,0.00,Graphweather,2013-08-29 22:16:00,
2013-08-29 18:29:00,81.7,77.0,30.00,SSE,157,2.0,0.0,86,0.00,,,0.00,Graphweather,2013-08-29 22:29:00,
2013-08-29 18:34:00,81.7,78.8,30.00,East,90,1.6,2.0,87,0.00,,,0.00,Graphweather,2013-08-29 22:34:00,
2013-08-29 18:39:00,81.7,78.8,30.00,East,90,1.1,0.0,87,0.00,,,0.00,Graphweather,2013-08-29 22:39:00,
2013-08-29 18:45:00,81.7,78.8,30.00,SSE,157,1.6,2.0,87,0.00,,,0.00,Graphweather,2013-08-29 22:45:00,
2013-08-29 18:50:00,81.5,78.8,30.03,East,90,0.9,2.0,88,0.00,,,0.00,Graphweather,2013-08-29 22:50:00,
2013-08-29 18:55:00,81.5,78.8,30.03,East,90,2.0,2.2,88,0.00,,,0.00,Graphweather,2013-08-29 22:55:00,
2013-08-29 19:01:00,81.5,78.8,30.03,East,90,2.0,0.0,88,0.00,,,0.00,Graphweather,2013-08-29 23:01:00,
2013-08-29 19:15:00,81.1,78.8,30.00,East,90,2.5,2.5,90,0.00,,,0.00,Graphweather,2013-08-29 23:15:00,
2013-08-29 19:20:00,81.0,78.8,30.00,ESE,112,2.2,2.2,90,0.00,,,0.00,Graphweather,2013-08-29 23:20:00,
2013-08-29 19:26:00,80.8,77.0,30.00,SE,135,1.3,0.0,90,0.00,,,0.00,Graphweather,2013-08-29 23:26:00,
2013-08-29 19:31:00,80.8,77.0,30.00,East,90,1.1,2.5,90,0.00,,,0.00,Graphweather,2013-08-29 23:31:00,
2013-08-29 19:41:00,80.8,77.0,29.97,East,90,0.9,1.1,88,0.00,,,0.00,Graphweather,2013-08-29 23:41:00,
2013-08-29 19:46:00,80.8,77.0,30.00,SE,135,1.6,1.6,89,0.00,,,0.00,Graphweather,2013-08-29 23:46:00,
2013-08-29 19:52:00,80.8,77.0,30.00,East,90,2.2,2.9,89,0.00,,,0.00,Graphweather,2013-08-29 23:52:00,
2013-08-29 19:57:00,80.8,77.0,30.00,ESE,112,2.9,2.9,90,0.00,,,0.00,Graphweather,2013-08-29 23:57:00,
2013-08-29 20:16:00,81.0,78.8,30.00,SE,135,2.7,4.3,90,0.00,,,0.00,Graphweather,2013-08-30 00:16:00,
2013-08-29 20:21:00,81.0,78.8,30.00,East,90,1.3,2.9,90,0.00,,,0.00,Graphweather,2013-08-30 00:21:00,
2013-08-29 20:26:00,81.0,78.8,30.00,SE,135,1.3,1.3,89,0.00,,,0.00,Graphweather,2013-08-30 00:26:00,
2013-08-29 20:45:00,81.0,78.8,30.03,SSE,157,2.2,3.8,90,0.00,,,0.00,Graphweather,2013-08-30 00:45:00,
2013-08-29 20:50:00,81.0,78.8,30.03,ESE,112,1.1,3.4,90,0.00,,,0.00,Graphweather,2013-08-30 00:50:00,
2013-08-29 20:56:00,81.0,78.8,30.03,SE,135,2.7,2.7,90,0.00,,,0.00,Graphweather,2013-08-30 00:56:00,
2013-08-29 21:01:00,81.0,78.8,30.03,East,90,2.5,4.3,90,0.00,,,0.00,Graphweather,2013-08-30 01:01:00,
2013-08-29 21:06:00,81.0,78.8,30.03,SE,135,1.3,1.3,91,0.00,,,0.00,Graphweather,2013-08-30 01:06:00,
2013-08-29 21:12:00,81.0,78.8,30.03,East,90,3.1,7.2,90,0.00,,,0.00,Graphweather,2013-08-30 01:12:00,
2013-08-29 21:17:00,80.8,77.0,30.03,East,90,2.5,3.1,90,0.00,,,0.00,Graphweather,2013-08-30 01:17:00,
2013-08-29 21:22:00,80.8,77.0,30.03,ENE,67,3.1,3.6,89,0.00,,,0.00,Graphweather,2013-08-30 01:22:00,
2013-08-29 21:28:00,80.8,77.0,30.03,East,90,2.9,3.4,90,0.00,,,0.00,Graphweather,2013-08-30 01:28:00,
2013-08-29 21:33:00,80.8,77.0,30.03,East,90,3.6,3.6,90,0.00,,,0.00,Graphweather,2013-08-30 01:33:00,
2013-08-29 21:38:00,80.8,77.0,30.03,East,90,3.8,3.8,90,0.00,,,0.00,Graphweather,2013-08-30 01:38:00,
2013-08-29 21:43:00,80.8,77.0,30.03,East,90,2.2,2.7,90,0.00,,,0.00,Graphweather,2013-08-30 01:43:00,
2013-08-29 21:49:00,80.6,77.0,30.03,ESE,112,2.9,2.9,90,0.00,,,0.00,Graphweather,2013-08-30 01:49:00,
2013-08-29 21:54:00,80.6,77.0,30.03,East,90,2.2,3.4,90,0.00,,,0.00,Graphweather,2013-08-30 01:54:00,
2013-08-29 21:59:00,80.6,78.8,30.03,SE,135,2.0,3.1,91,0.00,,,0.00,Graphweather,2013-08-30 01:59:00,
2013-08-29 22:05:00,80.6,78.8,30.03,South,180,2.0,4.3,91,0.00,,,0.00,Graphweather,2013-08-30 02:05:00,
2013-08-29 22:10:00,80.6,77.0,30.03,ENE,67,2.7,3.8,90,0.00,,,0.00,Graphweather,2013-08-30 02:10:00,
2013-08-29 22:15:00,80.6,77.0,30.03,East,90,2.7,3.4,90,0.00,,,0.00,Graphweather,2013-08-30 02:15:00,
2013-08-29 22:31:00,80.4,78.8,30.03,SE,135,1.6,2.9,91,0.00,,,0.00,Graphweather,2013-08-30 02:31:00,
2013-08-29 22:36:00,80.2,77.0,30.03,East,90,2.7,2.7,91,0.00,,,0.00,Graphweather,2013-08-30 02:36:00,
2013-08-29 22:42:00,80.4,78.8,30.03,East,90,2.5,3.4,91,0.00,,,0.00,Graphweather,2013-08-30 02:42:00,
2013-08-29 22:47:00,80.4,78.8,30.03,ENE,67,1.6,2.0,92,0.00,,,0.00,Graphweather,2013-08-30 02:47:00,
2013-08-29 22:52:00,80.2,77.0,30.03,East,90,1.3,2.5,92,0.00,,,0.00,Graphweather,2013-08-30 02:52:00,
2013-08-29 22:58:00,80.2,77.0,30.03,East,90,1.3,1.6,92,0.00,,,0.00,Graphweather,2013-08-30 02:58:00,
2013-08-29 23:03:00,80.1,77.0,30.03,East,90,2.7,2.9,92,0.00,,,0.00,Graphweather,2013-08-30 03:03:00,
2013-08-29 23:08:00,80.1,77.0,30.03,East,90,1.6,2.2,92,0.00,,,0.00,Graphweather,2013-08-30 03:08:00,
2013-08-29 23:13:00,80.1,77.0,30.03,East,90,0.9,2.2,92,0.00,,,0.00,Graphweather,2013-08-30 03:13:00,
2013-08-29 23:19:00,80.1,77.0,30.03,East,90,1.1,1.6,92,0.00,,,0.00,Graphweather,2013-08-30 03:19:00,
2013-08-29 23:24:00,80.1,78.8,30.03,East,90,0.9,2.0,93,0.00,,,0.00,Graphweather,2013-08-30 03:24:00,
2013-08-29 23:29:00,79.9,78.8,30.03,SSW,202,1.1,1.1,93,0.00,,,0.00,Graphweather,2013-08-30 03:29:00,
2013-08-29 23:34:00,79.9,78.8,30.00,SE,135,1.6,2.0,93,0.00,,,0.00,Graphweather,2013-08-30 03:34:00,
2013-08-29 23:40:00,79.9,78.8,30.00,East,90,1.3,1.3,93,0.00,,,0.00,Graphweather,2013-08-30 03:40:00,
2013-08-29 23:45:00,80.1,77.0,30.00,East,90,2.2,3.4,92,0.00,,,0.00,Graphweather,2013-08-30 03:45:00,
2013-08-29 23:50:00,79.9,77.0,30.00,East,90,2.0,2.0,92,0.00,,,0.00,Graphweather,2013-08-30 03:50:00,
2013-08-29 23:55:00,79.3,77.0,30.00,East,90,1.6,2.5,92,0.00,,,0.00,Graphweather,2013-08-30 03:55:00,